sensor_id;sensor_type;location;lat;lon;timestamp;P1;durP1;ratioP1;P2;durP2;ratioP2
73136;SDS011;67767;45.636;11.756;2023-09-19T00:00:56;19.98;;;12.07;;
73136;SDS011;67767;45.636;11.756;2023-09-19T00:03:22;19.20;;;12.02;;
73136;SDS011;67767;45.636;11.756;2023-09-19T00:05:49;20.63;;;12.07;;
73136;SDS011;67767;45.636;11.756;2023-09-19T00:08:15;22.67;;;11.90;;
73136;SDS011;67767;45.636;11.756;2023-09-19T00:10:42;19.73;;;11.27;;
73136;SDS011;67767;45.636;11.756;2023-09-19T00:13:08;21.02;;;11.55;;
73136;SDS011;67767;45.636;11.756;2023-09-19T00:15:44;20.02;;;12.15;;
73136;SDS011;67767;45.636;11.756;2023-09-19T00:18:15;20.73;;;12.03;;
73136;SDS011;67767;45.636;11.756;2023-09-19T00:20:43;22.13;;;12.68;;
73136;SDS011;67767;45.636;11.756;2023-09-19T00:23:13;21.63;;;11.73;;
73136;SDS011;67767;45.636;11.756;2023-09-19T00:25:38;22.90;;;12.02;;
73136;SDS011;67767;45.636;11.756;2023-09-19T00:28:05;20.25;;;12.60;;
73136;SDS011;67767;45.636;11.756;2023-09-19T00:30:32;20.90;;;11.77;;
73136;SDS011;67767;45.636;11.756;2023-09-19T00:32:59;21.92;;;13.25;;
73136;SDS011;67767;45.636;11.756;2023-09-19T00:35:26;21.75;;;12.52;;
73136;SDS011;67767;45.636;11.756;2023-09-19T00:37:52;19.33;;;11.73;;
73136;SDS011;67767;45.636;11.756;2023-09-19T00:40:19;18.77;;;11.10;;
73136;SDS011;67767;45.636;11.756;2023-09-19T00:42:46;21.83;;;11.25;;
73136;SDS011;67767;45.636;11.756;2023-09-19T00:45:14;21.20;;;11.73;;
73136;SDS011;67767;45.636;11.756;2023-09-19T00:47:43;21.83;;;12.05;;
73136;SDS011;67767;45.636;11.756;2023-09-19T00:50:17;20.50;;;11.40;;
73136;SDS011;67767;45.636;11.756;2023-09-19T00:52:44;21.10;;;12.03;;
73136;SDS011;67767;45.636;11.756;2023-09-19T00:55:14;18.30;;;11.00;;
73136;SDS011;67767;45.636;11.756;2023-09-19T00:57:41;18.95;;;11.27;;
73136;SDS011;67767;45.636;11.756;2023-09-19T01:00:07;22.35;;;11.32;;
73136;SDS011;67767;45.636;11.756;2023-09-19T01:02:40;17.23;;;10.45;;
73136;SDS011;67767;45.636;11.756;2023-09-19T01:05:07;21.33;;;11.47;;
73136;SDS011;67767;45.636;11.756;2023-09-19T01:07:34;20.02;;;11.30;;
73136;SDS011;67767;45.636;11.756;2023-09-19T01:10:04;21.23;;;11.98;;
73136;SDS011;67767;45.636;11.756;2023-09-19T01:24:54;17.70;;;10.68;;
73136;SDS011;67767;45.636;11.756;2023-09-19T01:29:42;22.85;;;11.60;;
73136;SDS011;67767;45.636;11.756;2023-09-19T01:32:11;17.77;;;10.90;;
73136;SDS011;67767;45.636;11.756;2023-09-19T01:37:13;22.33;;;11.52;;
73136;SDS011;67767;45.636;11.756;2023-09-19T01:39:48;20.63;;;10.80;;
73136;SDS011;67767;45.636;11.756;2023-09-19T01:48:15;17.52;;;10.55;;
73136;SDS011;67767;45.636;11.756;2023-09-19T01:50:49;20.55;;;10.45;;
73136;SDS011;67767;45.636;11.756;2023-09-19T01:53:36;20.02;;;11.50;;
73136;SDS011;67767;45.636;11.756;2023-09-19T01:56:08;20.38;;;10.90;;
73136;SDS011;67767;45.636;11.756;2023-09-19T01:58:46;20.27;;;10.50;;
73136;SDS011;67767;45.636;11.756;2023-09-19T02:01:16;18.80;;;11.18;;
73136;SDS011;67767;45.636;11.756;2023-09-19T02:03:47;20.40;;;10.52;;
73136;SDS011;67767;45.636;11.756;2023-09-19T02:06:15;17.90;;;10.85;;
73136;SDS011;67767;45.636;11.756;2023-09-19T02:08:43;21.88;;;11.15;;
73136;SDS011;67767;45.636;11.756;2023-09-19T02:11:10;21.50;;;10.83;;
73136;SDS011;67767;45.636;11.756;2023-09-19T02:13:38;20.65;;;11.13;;
73136;SDS011;67767;45.636;11.756;2023-09-19T02:16:05;21.77;;;11.48;;
73136;SDS011;67767;45.636;11.756;2023-09-19T02:18:34;24.80;;;12.60;;
73136;SDS011;67767;45.636;11.756;2023-09-19T02:21:00;23.83;;;11.40;;
73136;SDS011;67767;45.636;11.756;2023-09-19T02:23:26;23.20;;;12.40;;
73136;SDS011;67767;45.636;11.756;2023-09-19T02:25:56;21.08;;;10.90;;
73136;SDS011;67767;45.636;11.756;2023-09-19T02:28:31;19.70;;;11.15;;
73136;SDS011;67767;45.636;11.756;2023-09-19T02:30:58;20.23;;;11.20;;
73136;SDS011;67767;45.636;11.756;2023-09-19T02:33:24;19.48;;;10.98;;
73136;SDS011;67767;45.636;11.756;2023-09-19T02:35:49;18.90;;;11.20;;
73136;SDS011;67767;45.636;11.756;2023-09-19T02:38:19;19.60;;;10.40;;
73136;SDS011;67767;45.636;11.756;2023-09-19T02:40:49;19.05;;;10.35;;
73136;SDS011;67767;45.636;11.756;2023-09-19T02:43:15;21.27;;;10.97;;
73136;SDS011;67767;45.636;11.756;2023-09-19T02:45:42;17.83;;;11.05;;
73136;SDS011;67767;45.636;11.756;2023-09-19T02:48:07;21.83;;;11.55;;
73136;SDS011;67767;45.636;11.756;2023-09-19T02:50:33;21.50;;;11.00;;
73136;SDS011;67767;45.636;11.756;2023-09-19T02:52:59;21.27;;;11.95;;
73136;SDS011;67767;45.636;11.756;2023-09-19T02:55:25;19.73;;;11.02;;
73136;SDS011;67767;45.636;11.756;2023-09-19T02:57:52;20.23;;;11.90;;
73136;SDS011;67767;45.636;11.756;2023-09-19T03:00:20;20.27;;;12.05;;
73136;SDS011;67767;45.636;11.756;2023-09-19T03:02:53;21.15;;;11.77;;
73136;SDS011;67767;45.636;11.756;2023-09-19T03:05:20;23.55;;;12.07;;
73136;SDS011;67767;45.636;11.756;2023-09-19T03:07:48;20.20;;;12.50;;
73136;SDS011;67767;45.636;11.756;2023-09-19T03:10:16;27.77;;;13.07;;
73136;SDS011;67767;45.636;11.756;2023-09-19T03:12:42;20.85;;;13.50;;
73136;SDS011;67767;45.636;11.756;2023-09-19T03:15:08;24.02;;;12.90;;
73136;SDS011;67767;45.636;11.756;2023-09-19T03:17:34;23.83;;;13.43;;
73136;SDS011;67767;45.636;11.756;2023-09-19T03:20:01;26.10;;;13.00;;
73136;SDS011;67767;45.636;11.756;2023-09-19T03:22:27;24.90;;;12.77;;
73136;SDS011;67767;45.636;11.756;2023-09-19T03:24:53;27.02;;;13.27;;
73136;SDS011;67767;45.636;11.756;2023-09-19T03:27:19;21.10;;;12.37;;
73136;SDS011;67767;45.636;11.756;2023-09-19T03:29:45;21.88;;;12.15;;
73136;SDS011;67767;45.636;11.756;2023-09-19T03:32:12;22.30;;;12.43;;
73136;SDS011;67767;45.636;11.756;2023-09-19T03:34:38;21.00;;;12.00;;
73136;SDS011;67767;45.636;11.756;2023-09-19T03:37:11;19.63;;;11.80;;
73136;SDS011;67767;45.636;11.756;2023-09-19T03:39:37;19.65;;;10.82;;
73136;SDS011;67767;45.636;11.756;2023-09-19T03:42:03;25.70;;;12.63;;
73136;SDS011;67767;45.636;11.756;2023-09-19T03:44:29;21.73;;;11.23;;
73136;SDS011;67767;45.636;11.756;2023-09-19T03:46:55;22.38;;;11.23;;
73136;SDS011;67767;45.636;11.756;2023-09-19T03:49:22;21.40;;;10.93;;
73136;SDS011;67767;45.636;11.756;2023-09-19T03:51:47;20.05;;;10.85;;
73136;SDS011;67767;45.636;11.756;2023-09-19T03:54:13;19.25;;;10.60;;
73136;SDS011;67767;45.636;11.756;2023-09-19T03:56:39;18.27;;;10.47;;
73136;SDS011;67767;45.636;11.756;2023-09-19T03:59:05;20.88;;;11.45;;
73136;SDS011;67767;45.636;11.756;2023-09-19T04:01:31;22.30;;;10.98;;
73136;SDS011;67767;45.636;11.756;2023-09-19T04:03:58;21.73;;;10.60;;
73136;SDS011;67767;45.636;11.756;2023-09-19T04:06:23;19.55;;;10.23;;
73136;SDS011;67767;45.636;11.756;2023-09-19T04:08:49;19.65;;;10.57;;
73136;SDS011;67767;45.636;11.756;2023-09-19T04:11:15;19.50;;;11.07;;
73136;SDS011;67767;45.636;11.756;2023-09-19T04:13:40;20.00;;;10.53;;
73136;SDS011;67767;45.636;11.756;2023-09-19T04:16:06;20.13;;;11.48;;
73136;SDS011;67767;45.636;11.756;2023-09-19T04:18:32;21.97;;;11.00;;
73136;SDS011;67767;45.636;11.756;2023-09-19T04:21:02;19.23;;;11.13;;
73136;SDS011;67767;45.636;11.756;2023-09-19T04:23:29;19.35;;;11.18;;
73136;SDS011;67767;45.636;11.756;2023-09-19T04:25:55;22.35;;;10.13;;
73136;SDS011;67767;45.636;11.756;2023-09-19T04:28:21;16.17;;;9.77;;
73136;SDS011;67767;45.636;11.756;2023-09-19T04:30:46;22.58;;;11.38;;
73136;SDS011;67767;45.636;11.756;2023-09-19T04:33:13;17.83;;;9.32;;
73136;SDS011;67767;45.636;11.756;2023-09-19T04:35:41;23.53;;;10.53;;
73136;SDS011;67767;45.636;11.756;2023-09-19T04:38:07;22.23;;;10.85;;
73136;SDS011;67767;45.636;11.756;2023-09-19T04:40:33;18.88;;;10.45;;
73136;SDS011;67767;45.636;11.756;2023-09-19T04:42:59;19.75;;;10.05;;
73136;SDS011;67767;45.636;11.756;2023-09-19T04:45:26;20.00;;;10.57;;
73136;SDS011;67767;45.636;11.756;2023-09-19T04:47:52;17.83;;;9.73;;
73136;SDS011;67767;45.636;11.756;2023-09-19T04:50:19;21.70;;;10.50;;
73136;SDS011;67767;45.636;11.756;2023-09-19T04:52:48;17.33;;;9.85;;
73136;SDS011;67767;45.636;11.756;2023-09-19T04:55:16;18.80;;;10.13;;
73136;SDS011;67767;45.636;11.756;2023-09-19T04:57:51;20.17;;;11.02;;
73136;SDS011;67767;45.636;11.756;2023-09-19T05:00:21;19.33;;;10.00;;
73136;SDS011;67767;45.636;11.756;2023-09-19T05:02:52;19.33;;;10.43;;
73136;SDS011;67767;45.636;11.756;2023-09-19T05:05:22;17.58;;;9.02;;
73136;SDS011;67767;45.636;11.756;2023-09-19T05:07:48;19.77;;;9.75;;
73136;SDS011;67767;45.636;11.756;2023-09-19T05:10:14;18.15;;;10.13;;
73136;SDS011;67767;45.636;11.756;2023-09-19T05:12:43;17.20;;;9.90;;
73136;SDS011;67767;45.636;11.756;2023-09-19T05:15:12;19.48;;;9.70;;
73136;SDS011;67767;45.636;11.756;2023-09-19T05:17:38;18.58;;;9.23;;
73136;SDS011;67767;45.636;11.756;2023-09-19T05:20:04;16.25;;;8.65;;
73136;SDS011;67767;45.636;11.756;2023-09-19T05:23:06;19.65;;;9.57;;
73136;SDS011;67767;45.636;11.756;2023-09-19T05:25:34;17.10;;;8.33;;
73136;SDS011;67767;45.636;11.756;2023-09-19T05:28:07;18.27;;;10.90;;
73136;SDS011;67767;45.636;11.756;2023-09-19T05:30:36;19.08;;;10.05;;
73136;SDS011;67767;45.636;11.756;2023-09-19T05:33:06;17.17;;;9.27;;
73136;SDS011;67767;45.636;11.756;2023-09-19T05:35:32;17.40;;;9.38;;
73136;SDS011;67767;45.636;11.756;2023-09-19T05:37:58;26.13;;;9.50;;
73136;SDS011;67767;45.636;11.756;2023-09-19T05:40:24;18.63;;;9.70;;
73136;SDS011;67767;45.636;11.756;2023-09-19T05:42:51;21.25;;;9.10;;
73136;SDS011;67767;45.636;11.756;2023-09-19T05:45:17;18.50;;;8.77;;
73136;SDS011;67767;45.636;11.756;2023-09-19T05:47:47;16.27;;;8.90;;
73136;SDS011;67767;45.636;11.756;2023-09-19T05:50:14;14.23;;;8.57;;
73136;SDS011;67767;45.636;11.756;2023-09-19T05:52:41;18.33;;;9.43;;
73136;SDS011;67767;45.636;11.756;2023-09-19T05:55:10;16.80;;;8.35;;
73136;SDS011;67767;45.636;11.756;2023-09-19T05:57:36;18.47;;;9.37;;
73136;SDS011;67767;45.636;11.756;2023-09-19T06:00:07;21.95;;;8.88;;
73136;SDS011;67767;45.636;11.756;2023-09-19T06:02:37;14.13;;;8.23;;
73136;SDS011;67767;45.636;11.756;2023-09-19T06:05:04;16.20;;;8.38;;
73136;SDS011;67767;45.636;11.756;2023-09-19T06:07:31;17.53;;;8.67;;
73136;SDS011;67767;45.636;11.756;2023-09-19T06:10:02;18.42;;;8.10;;
73136;SDS011;67767;45.636;11.756;2023-09-19T06:12:30;15.43;;;8.10;;
73136;SDS011;67767;45.636;11.756;2023-09-19T06:14:58;18.05;;;8.50;;
73136;SDS011;67767;45.636;11.756;2023-09-19T06:17:24;14.20;;;7.65;;
73136;SDS011;67767;45.636;11.756;2023-09-19T06:19:52;20.27;;;9.60;;
73136;SDS011;67767;45.636;11.756;2023-09-19T06:22:18;14.80;;;7.28;;
73136;SDS011;67767;45.636;11.756;2023-09-19T06:24:44;14.10;;;6.75;;
73136;SDS011;67767;45.636;11.756;2023-09-19T06:27:12;14.80;;;7.13;;
73136;SDS011;67767;45.636;11.756;2023-09-19T06:29:38;14.60;;;6.53;;
73136;SDS011;67767;45.636;11.756;2023-09-19T06:32:07;13.27;;;6.80;;
73136;SDS011;67767;45.636;11.756;2023-09-19T06:34:36;17.30;;;8.20;;
73136;SDS011;67767;45.636;11.756;2023-09-19T06:37:08;12.90;;;6.77;;
73136;SDS011;67767;45.636;11.756;2023-09-19T06:39:33;13.95;;;7.05;;
73136;SDS011;67767;45.636;11.756;2023-09-19T06:41:59;12.47;;;6.33;;
73136;SDS011;67767;45.636;11.756;2023-09-19T06:44:26;17.23;;;7.43;;
73136;SDS011;67767;45.636;11.756;2023-09-19T06:46:54;13.48;;;6.95;;
73136;SDS011;67767;45.636;11.756;2023-09-19T06:49:20;15.17;;;6.30;;
73136;SDS011;67767;45.636;11.756;2023-09-19T06:51:46;13.23;;;7.03;;
73136;SDS011;67767;45.636;11.756;2023-09-19T06:54:11;15.37;;;7.50;;
73136;SDS011;67767;45.636;11.756;2023-09-19T06:56:37;13.63;;;6.85;;
73136;SDS011;67767;45.636;11.756;2023-09-19T06:59:02;14.57;;;6.87;;
73136;SDS011;67767;45.636;11.756;2023-09-19T07:01:31;26.52;;;10.10;;
73136;SDS011;67767;45.636;11.756;2023-09-19T07:03:57;13.30;;;6.80;;
73136;SDS011;67767;45.636;11.756;2023-09-19T07:06:22;19.67;;;8.07;;
73136;SDS011;67767;45.636;11.756;2023-09-19T07:08:49;14.02;;;6.70;;
73136;SDS011;67767;45.636;11.756;2023-09-19T07:11:15;16.15;;;7.28;;
73136;SDS011;67767;45.636;11.756;2023-09-19T07:13:41;11.33;;;6.53;;
73136;SDS011;67767;45.636;11.756;2023-09-19T07:16:06;16.67;;;7.20;;
73136;SDS011;67767;45.636;11.756;2023-09-19T07:18:35;17.63;;;7.60;;
73136;SDS011;67767;45.636;11.756;2023-09-19T07:21:01;12.60;;;6.60;;
73136;SDS011;67767;45.636;11.756;2023-09-19T07:23:30;20.55;;;7.70;;
73136;SDS011;67767;45.636;11.756;2023-09-19T07:26:00;17.42;;;7.38;;
73136;SDS011;67767;45.636;11.756;2023-09-19T07:28:30;12.48;;;6.95;;
73136;SDS011;67767;45.636;11.756;2023-09-19T07:30:56;16.20;;;7.07;;
73136;SDS011;67767;45.636;11.756;2023-09-19T07:33:22;14.57;;;7.80;;
73136;SDS011;67767;45.636;11.756;2023-09-19T07:35:51;16.52;;;8.02;;
73136;SDS011;67767;45.636;11.756;2023-09-19T07:38:17;14.98;;;7.65;;
73136;SDS011;67767;45.636;11.756;2023-09-19T07:40:43;13.90;;;7.50;;
73136;SDS011;67767;45.636;11.756;2023-09-19T07:43:08;16.35;;;7.55;;
73136;SDS011;67767;45.636;11.756;2023-09-19T07:45:34;17.07;;;7.93;;
73136;SDS011;67767;45.636;11.756;2023-09-19T07:48:01;15.25;;;8.38;;
73136;SDS011;67767;45.636;11.756;2023-09-19T07:50:29;15.23;;;7.72;;
73136;SDS011;67767;45.636;11.756;2023-09-19T07:52:55;14.37;;;7.73;;
73136;SDS011;67767;45.636;11.756;2023-09-19T07:55:21;18.65;;;7.68;;
73136;SDS011;67767;45.636;11.756;2023-09-19T07:57:51;15.80;;;7.95;;
73136;SDS011;67767;45.636;11.756;2023-09-19T08:00:18;14.48;;;7.15;;
73136;SDS011;67767;45.636;11.756;2023-09-19T08:02:43;14.70;;;8.10;;
73136;SDS011;67767;45.636;11.756;2023-09-19T08:05:10;15.60;;;7.88;;
73136;SDS011;67767;45.636;11.756;2023-09-19T08:07:38;13.25;;;7.70;;
73136;SDS011;67767;45.636;11.756;2023-09-19T08:10:04;17.10;;;8.00;;
73136;SDS011;67767;45.636;11.756;2023-09-19T08:12:38;16.33;;;8.20;;
73136;SDS011;67767;45.636;11.756;2023-09-19T08:15:11;19.03;;;9.80;;
73136;SDS011;67767;45.636;11.756;2023-09-19T08:17:40;17.80;;;9.23;;
73136;SDS011;67767;45.636;11.756;2023-09-19T08:20:07;15.55;;;8.90;;
73136;SDS011;67767;45.636;11.756;2023-09-19T08:22:41;16.73;;;9.00;;
73136;SDS011;67767;45.636;11.756;2023-09-19T08:25:09;19.97;;;9.50;;
73136;SDS011;67767;45.636;11.756;2023-09-19T08:27:34;18.20;;;8.80;;
73136;SDS011;67767;45.636;11.756;2023-09-19T08:30:01;15.07;;;7.70;;
73136;SDS011;67767;45.636;11.756;2023-09-19T08:32:28;19.95;;;8.13;;
73136;SDS011;67767;45.636;11.756;2023-09-19T08:34:54;17.60;;;9.17;;
73136;SDS011;67767;45.636;11.756;2023-09-19T08:37:19;14.93;;;8.20;;
73136;SDS011;67767;45.636;11.756;2023-09-19T08:39:45;18.87;;;8.73;;
73136;SDS011;67767;45.636;11.756;2023-09-19T08:42:11;20.02;;;9.02;;
73136;SDS011;67767;45.636;11.756;2023-09-19T08:44:38;19.98;;;9.73;;
73136;SDS011;67767;45.636;11.756;2023-09-19T08:47:15;16.87;;;10.60;;
73136;SDS011;67767;45.636;11.756;2023-09-19T08:49:53;18.88;;;10.30;;
73136;SDS011;67767;45.636;11.756;2023-09-19T08:52:42;14.90;;;8.68;;
73136;SDS011;67767;45.636;11.756;2023-09-19T08:55:12;17.20;;;9.55;;
73136;SDS011;67767;45.636;11.756;2023-09-19T08:57:46;19.15;;;9.63;;
73136;SDS011;67767;45.636;11.756;2023-09-19T09:00:14;18.43;;;9.30;;
73136;SDS011;67767;45.636;11.756;2023-09-19T09:02:46;18.30;;;10.65;;
73136;SDS011;67767;45.636;11.756;2023-09-19T09:05:13;17.10;;;10.43;;
73136;SDS011;67767;45.636;11.756;2023-09-19T09:07:41;16.70;;;9.95;;
73136;SDS011;67767;45.636;11.756;2023-09-19T09:10:08;17.27;;;9.73;;
73136;SDS011;67767;45.636;11.756;2023-09-19T09:12:35;18.70;;;9.00;;
73136;SDS011;67767;45.636;11.756;2023-09-19T09:15:06;16.17;;;8.75;;
73136;SDS011;67767;45.636;11.756;2023-09-19T09:17:33;21.45;;;9.43;;
73136;SDS011;67767;45.636;11.756;2023-09-19T09:19:59;19.30;;;12.48;;
73136;SDS011;67767;45.636;11.756;2023-09-19T09:22:25;13.67;;;8.37;;
73136;SDS011;67767;45.636;11.756;2023-09-19T09:24:55;16.35;;;9.18;;
73136;SDS011;67767;45.636;11.756;2023-09-19T09:27:28;17.15;;;7.43;;
73136;SDS011;67767;45.636;11.756;2023-09-19T09:29:54;13.60;;;7.57;;
73136;SDS011;67767;45.636;11.756;2023-09-19T09:32:23;15.40;;;8.40;;
73136;SDS011;67767;45.636;11.756;2023-09-19T09:35:01;13.30;;;7.50;;
73136;SDS011;67767;45.636;11.756;2023-09-19T09:37:34;13.52;;;7.25;;
73136;SDS011;67767;45.636;11.756;2023-09-19T09:40:04;14.00;;;7.38;;
73136;SDS011;67767;45.636;11.756;2023-09-19T09:42:40;12.50;;;7.37;;
73136;SDS011;67767;45.636;11.756;2023-09-19T09:45:16;12.27;;;7.05;;
73136;SDS011;67767;45.636;11.756;2023-09-19T09:47:59;12.85;;;6.57;;
73136;SDS011;67767;45.636;11.756;2023-09-19T09:50:32;12.32;;;5.63;;
73136;SDS011;67767;45.636;11.756;2023-09-19T09:55:57;9.77;;;5.47;;
73136;SDS011;67767;45.636;11.756;2023-09-19T09:58:50;9.40;;;5.60;;
73136;SDS011;67767;45.636;11.756;2023-09-19T10:01:21;12.88;;;5.60;;
73136;SDS011;67767;45.636;11.756;2023-09-19T10:03:52;11.32;;;5.43;;
73136;SDS011;67767;45.636;11.756;2023-09-19T10:06:23;11.60;;;5.70;;
73136;SDS011;67767;45.636;11.756;2023-09-19T10:09:22;12.43;;;5.33;;
73136;SDS011;67767;45.636;11.756;2023-09-19T10:11:48;10.80;;;4.60;;
73136;SDS011;67767;45.636;11.756;2023-09-19T10:14:24;10.50;;;5.40;;
73136;SDS011;67767;45.636;11.756;2023-09-19T10:16:56;10.32;;;5.57;;
73136;SDS011;67767;45.636;11.756;2023-09-19T10:19:29;12.57;;;5.60;;
73136;SDS011;67767;45.636;11.756;2023-09-19T10:22:01;12.13;;;5.20;;
73136;SDS011;67767;45.636;11.756;2023-09-19T10:24:29;12.88;;;4.65;;
73136;SDS011;67767;45.636;11.756;2023-09-19T10:26:56;10.75;;;6.03;;
73136;SDS011;67767;45.636;11.756;2023-09-19T10:29:22;9.25;;;5.13;;
73136;SDS011;67767;45.636;11.756;2023-09-19T10:31:52;11.98;;;5.10;;
73136;SDS011;67767;45.636;11.756;2023-09-19T10:34:18;11.10;;;5.37;;
73136;SDS011;67767;45.636;11.756;2023-09-19T10:36:46;9.43;;;5.10;;
73136;SDS011;67767;45.636;11.756;2023-09-19T10:39:15;11.60;;;5.07;;
73136;SDS011;67767;45.636;11.756;2023-09-19T10:41:47;9.20;;;4.78;;
73136;SDS011;67767;45.636;11.756;2023-09-19T10:44:24;9.20;;;4.47;;
73136;SDS011;67767;45.636;11.756;2023-09-19T10:46:51;9.47;;;5.00;;
73136;SDS011;67767;45.636;11.756;2023-09-19T10:49:19;12.68;;;4.75;;
73136;SDS011;67767;45.636;11.756;2023-09-19T10:51:46;12.13;;;5.05;;
73136;SDS011;67767;45.636;11.756;2023-09-19T10:54:15;12.07;;;4.60;;
73136;SDS011;67767;45.636;11.756;2023-09-19T10:56:47;12.95;;;5.40;;
73136;SDS011;67767;45.636;11.756;2023-09-19T10:59:15;11.43;;;5.70;;
73136;SDS011;67767;45.636;11.756;2023-09-19T11:01:49;9.60;;;5.10;;
73136;SDS011;67767;45.636;11.756;2023-09-19T11:09:45;11.65;;;5.10;;
73136;SDS011;67767;45.636;11.756;2023-09-19T11:12:47;10.50;;;4.70;;
73136;SDS011;67767;45.636;11.756;2023-09-19T11:15:06;11.70;;;4.95;;
73136;SDS011;67767;45.636;11.756;2023-09-19T11:17:42;11.80;;;6.05;;
73136;SDS011;67767;45.636;11.756;2023-09-19T11:30:49;10.95;;;5.00;;
73136;SDS011;67767;45.636;11.756;2023-09-19T11:35:59;9.05;;;4.03;;
73136;SDS011;67767;45.636;11.756;2023-09-19T11:43:50;10.70;;;4.25;;
73136;SDS011;67767;45.636;11.756;2023-09-19T11:47:14;8.20;;;5.20;;
73136;SDS011;67767;45.636;11.756;2023-09-19T11:49:18;9.10;;;4.30;;
73136;SDS011;67767;45.636;11.756;2023-09-19T11:51:51;10.13;;;4.40;;
73136;SDS011;67767;45.636;11.756;2023-09-19T11:54:17;10.88;;;4.68;;
73136;SDS011;67767;45.636;11.756;2023-09-19T11:56:47;8.63;;;3.78;;
73136;SDS011;67767;45.636;11.756;2023-09-19T11:59:22;8.90;;;4.03;;
73136;SDS011;67767;45.636;11.756;2023-09-19T12:01:55;7.93;;;3.40;;
73136;SDS011;67767;45.636;11.756;2023-09-19T12:04:41;8.10;;;3.67;;
73136;SDS011;67767;45.636;11.756;2023-09-19T12:07:14;8.27;;;3.75;;
73136;SDS011;67767;45.636;11.756;2023-09-19T12:09:47;8.82;;;3.30;;
73136;SDS011;67767;45.636;11.756;2023-09-19T12:12:24;8.77;;;3.63;;
73136;SDS011;67767;45.636;11.756;2023-09-19T12:14:55;8.55;;;4.80;;
73136;SDS011;67767;45.636;11.756;2023-09-19T12:17:37;10.90;;;3.88;;
73136;SDS011;67767;45.636;11.756;2023-09-19T12:20:07;7.30;;;2.97;;
73136;SDS011;67767;45.636;11.756;2023-09-19T12:22:45;7.88;;;2.90;;
73136;SDS011;67767;45.636;11.756;2023-09-19T12:25:12;10.57;;;3.70;;
73136;SDS011;67767;45.636;11.756;2023-09-19T12:27:45;6.43;;;3.15;;
73136;SDS011;67767;45.636;11.756;2023-09-19T12:30:21;10.48;;;3.55;;
73136;SDS011;67767;45.636;11.756;2023-09-19T12:32:53;8.10;;;3.63;;
73136;SDS011;67767;45.636;11.756;2023-09-19T12:35:27;7.78;;;3.75;;
73136;SDS011;67767;45.636;11.756;2023-09-19T12:37:55;13.17;;;5.23;;
73136;SDS011;67767;45.636;11.756;2023-09-19T12:40:21;8.23;;;3.72;;
73136;SDS011;67767;45.636;11.756;2023-09-19T12:42:52;8.27;;;3.80;;
73136;SDS011;67767;45.636;11.756;2023-09-19T12:45:32;8.20;;;3.85;;
73136;SDS011;67767;45.636;11.756;2023-09-19T12:51:06;6.80;;;3.40;;
73136;SDS011;67767;45.636;11.756;2023-09-19T12:56:12;8.73;;;3.40;;
73136;SDS011;67767;45.636;11.756;2023-09-19T12:58:58;8.45;;;3.42;;
73136;SDS011;67767;45.636;11.756;2023-09-19T13:01:28;6.15;;;3.30;;
73136;SDS011;67767;45.636;11.756;2023-09-19T13:04:13;9.17;;;3.43;;
73136;SDS011;67767;45.636;11.756;2023-09-19T13:06:50;8.15;;;3.13;;
73136;SDS011;67767;45.636;11.756;2023-09-19T13:09:17;9.82;;;3.67;;
73136;SDS011;67767;45.636;11.756;2023-09-19T13:11:48;8.07;;;3.40;;
73136;SDS011;67767;45.636;11.756;2023-09-19T13:16:58;8.40;;;3.20;;
73136;SDS011;67767;45.636;11.756;2023-09-19T13:19:49;8.05;;;3.17;;
73136;SDS011;67767;45.636;11.756;2023-09-19T13:25:14;6.32;;;3.15;;
73136;SDS011;67767;45.636;11.756;2023-09-19T13:27:45;6.03;;;3.20;;
73136;SDS011;67767;45.636;11.756;2023-09-19T13:30:13;7.83;;;3.50;;
73136;SDS011;67767;45.636;11.756;2023-09-19T13:32:39;7.10;;;2.95;;
73136;SDS011;67767;45.636;11.756;2023-09-19T13:35:06;8.00;;;3.35;;
73136;SDS011;67767;45.636;11.756;2023-09-19T13:37:35;7.13;;;2.92;;
73136;SDS011;67767;45.636;11.756;2023-09-19T13:40:06;8.48;;;3.38;;
73136;SDS011;67767;45.636;11.756;2023-09-19T13:42:33;7.53;;;2.77;;
73136;SDS011;67767;45.636;11.756;2023-09-19T13:44:59;6.43;;;2.50;;
73136;SDS011;67767;45.636;11.756;2023-09-19T13:47:25;9.35;;;3.90;;
73136;SDS011;67767;45.636;11.756;2023-09-19T13:49:52;7.00;;;2.43;;
73136;SDS011;67767;45.636;11.756;2023-09-19T13:52:20;6.18;;;2.50;;
73136;SDS011;67767;45.636;11.756;2023-09-19T13:54:48;6.72;;;2.97;;
73136;SDS011;67767;45.636;11.756;2023-09-19T13:57:17;6.47;;;2.65;;
73136;SDS011;67767;45.636;11.756;2023-09-19T13:59:43;11.82;;;4.35;;
73136;SDS011;67767;45.636;11.756;2023-09-19T14:02:09;9.33;;;2.60;;
73136;SDS011;67767;45.636;11.756;2023-09-19T14:04:35;7.88;;;2.92;;
73136;SDS011;67767;45.636;11.756;2023-09-19T14:07:01;5.20;;;2.40;;
73136;SDS011;67767;45.636;11.756;2023-09-19T14:09:29;6.47;;;2.33;;
73136;SDS011;67767;45.636;11.756;2023-09-19T14:11:55;9.05;;;2.50;;
73136;SDS011;67767;45.636;11.756;2023-09-19T14:14:22;7.70;;;2.63;;
73136;SDS011;67767;45.636;11.756;2023-09-19T14:16:47;8.80;;;3.20;;
73136;SDS011;67767;45.636;11.756;2023-09-19T14:19:13;6.70;;;2.80;;
73136;SDS011;67767;45.636;11.756;2023-09-19T14:21:41;6.93;;;3.08;;
73136;SDS011;67767;45.636;11.756;2023-09-19T14:24:07;6.80;;;2.83;;
73136;SDS011;67767;45.636;11.756;2023-09-19T14:26:37;8.23;;;3.38;;
73136;SDS011;67767;45.636;11.756;2023-09-19T14:29:03;8.25;;;3.30;;
73136;SDS011;67767;45.636;11.756;2023-09-19T14:31:29;7.93;;;2.83;;
73136;SDS011;67767;45.636;11.756;2023-09-19T14:33:55;8.05;;;3.33;;
73136;SDS011;67767;45.636;11.756;2023-09-19T14:36:27;8.60;;;3.65;;
73136;SDS011;67767;45.636;11.756;2023-09-19T14:38:55;7.47;;;3.00;;
73136;SDS011;67767;45.636;11.756;2023-09-19T14:41:22;8.07;;;3.40;;
73136;SDS011;67767;45.636;11.756;2023-09-19T14:43:50;7.15;;;3.08;;
73136;SDS011;67767;45.636;11.756;2023-09-19T14:46:20;7.47;;;2.80;;
73136;SDS011;67767;45.636;11.756;2023-09-19T14:48:46;7.88;;;3.20;;
73136;SDS011;67767;45.636;11.756;2023-09-19T14:51:12;14.10;;;3.53;;
73136;SDS011;67767;45.636;11.756;2023-09-19T14:53:39;6.72;;;3.70;;
73136;SDS011;67767;45.636;11.756;2023-09-19T14:56:07;8.52;;;3.20;;
73136;SDS011;67767;45.636;11.756;2023-09-19T14:58:33;10.38;;;3.33;;
73136;SDS011;67767;45.636;11.756;2023-09-19T15:01:06;7.13;;;2.97;;
73136;SDS011;67767;45.636;11.756;2023-09-19T15:03:36;9.70;;;3.63;;
73136;SDS011;67767;45.636;11.756;2023-09-19T15:06:05;10.20;;;3.53;;
73136;SDS011;67767;45.636;11.756;2023-09-19T15:08:34;8.82;;;3.97;;
73136;SDS011;67767;45.636;11.756;2023-09-19T15:11:03;9.88;;;3.40;;
73136;SDS011;67767;45.636;11.756;2023-09-19T15:13:32;9.05;;;3.72;;
73136;SDS011;67767;45.636;11.756;2023-09-19T15:16:02;7.87;;;3.10;;
73136;SDS011;67767;45.636;11.756;2023-09-19T15:18:35;7.97;;;3.38;;
73136;SDS011;67767;45.636;11.756;2023-09-19T15:21:06;9.50;;;3.60;;
73136;SDS011;67767;45.636;11.756;2023-09-19T15:23:36;12.20;;;5.32;;
73136;SDS011;67767;45.636;11.756;2023-09-19T15:26:03;11.25;;;4.03;;
73136;SDS011;67767;45.636;11.756;2023-09-19T15:28:30;8.70;;;4.43;;
73136;SDS011;67767;45.636;11.756;2023-09-19T15:31:04;13.70;;;4.40;;
73136;SDS011;67767;45.636;11.756;2023-09-19T15:33:31;22.55;;;6.18;;